Ardmore, OK

9:28 AM CDT on July 12, 2014 (GMT -0500)
Ardmore Weather Live (KOKARDMO4) Elev 810 ft | 34.15 °N, 97.11 °W | Change Station

Current weather conditions updated 4 seconds ago

Clear
Clear
81.8 °F
Feels Like 84 °F
N
2.6
Wind Variable Wind from SSW
Gusts 4.6 mph

Today is forecast to be Warmer than yesterday.

Today
High -- | Low -- °F
--% Chance of Precip.
Yesterday
High -- | Low -- °F
Precip. -- in
6:26 AM 8:41 PM
Full, 100% visible
Pressure 30.17 in
Visibility 10.0 miles
Clouds Clear
Heat Index 84 °F
Dew Point 67 °F
Humidity 60%
Rainfall 0.00 in
Snow Depth Not available.
UV 1.7 out of 12
Pollen 4.80 out of 12
Air Quality Not available.
Flu Activity Local Activity
METAR K1F0 121415Z AUTO 22003KT 10SM CLR 27/17 A3017 RMK AO2

More Conditions Fewer Conditions

Pressure 30.17 in
Visibility 10.0 miles
Clouds Clear
Heat Index 84 °F
Dew Point 67 °F
Humidity 60%
Rainfall 0.00 in
Snow Depth Not available.
UV 1.7 out of 12
Pollen 4.80 out of 12
Air Quality Not available.
Flu Activity Local Activity
METAR K1F0 121415Z AUTO 22003KT 10SM CLR 27/17 A3017 RMK AO2

More Conditions Fewer Conditions

10-Day Weather Forecast

Almanac

Astronomy

Jul. 12, 2014 Rise Set
Actual Time 6:26 AM CDT 8:41 PM CDT
Civil Twilight 5:57 AM CDT 9:10 PM CDT
Nautical Twilight 5:22 AM CDT 9:45 PM CDT
Astronomical Twilight 4:43 AM CDT 10:23 PM CDT
Moon 8:50 PM CDT 6:43 AM CDT
Length of Visible Light 15h 13m
Length of Day
14h 15m
Tomorrow will be 0m 58s shorter.
Full, 100% of the Moon is Illuminated
Today
Full
Jul 18
Last Quarter
Jul 26
New
Aug 3
First Quarter
Aug 10
Full

Today's Extremes

State Highs State Lows

Community

WunderPhotos

Upload Photos

1,732,842 photos uploaded!

WunderBlogs® & News

Nearby

Snow Depth

Station Depth Elevation
No new snow has been reported.

Earthquake Activity

City Distance Mag. Time & Date
No recent earthquake activity has been reported nearby.
Minimum magnitude displayed is 2.5.

Coastal Water Temperatures

Place Temperature
No Stations Reporting

Nearby Weather Stations

Station Location Temp. Heat Index Dew Point Humidity Wind Precip. Elev Updated Type
Ardmore Weather Live, Ardmore, Ok 81.8 °F 84 °F 67 °F 60% SSW  at  2.6 mph 0.00 in / hr 810 ft 9:28 AM CDT Rapid Fire
Carter County EMA, Ardmore, OK 80.1 °F 82 °F 66 °F 63% SW  at  6.0 mph 0.00 in / hr 922 ft 9:19 AM CDT Normal
Dickson Volunteer Fire Department, Ardmore, OK 79.3 °F 81 °F 66 °F 64% SSW  at  5.0 mph 0.00 in / hr 866 ft 9:19 AM CDT Normal
Carter County Dist 3, Lone Grove, OK 80.4 °F 83 °F 67 °F 63% SSW  at  8.0 mph 0.00 in / hr 927 ft 9:22 AM CDT Normal
Carter County Dist 1, Springer, OK 79.1 °F 81 °F 67 °F 66% SSW  at  0.0 mph 0.00 in / hr 895 ft 9:15 AM CDT Normal
Carter County Dist 2, Healdton, OK 79.7 °F 82 °F 66 °F 64% SW  at  5.0 mph 0.00 in / hr 933 ft 9:23 AM CDT Normal

Show More Stations Show Fewer Stations